createdAt,value
2018-06-09T00:01:08.356Z,12.53
2018-06-09T00:03:36.913Z,14.57
2018-06-09T00:06:05.455Z,33.70
2018-06-09T00:08:33.970Z,18.17
2018-06-09T00:11:02.396Z,25.53
2018-06-09T00:13:30.947Z,24.73
2018-06-09T00:15:59.656Z,21.43
2018-06-09T00:18:28.083Z,25.30
2018-06-09T00:20:56.540Z,17.07
2018-06-09T00:23:25.138Z,21.10
2018-06-09T00:25:53.787Z,17.33
2018-06-09T00:28:22.197Z,21.40
2018-06-09T00:30:50.760Z,21.73
2018-06-09T00:33:19.249Z,23.23
2018-06-09T00:35:47.685Z,20.00
2018-06-09T00:38:16.143Z,26.07
2018-06-09T00:40:44.711Z,21.80
2018-06-09T00:43:13.156Z,20.87
2018-06-09T00:45:41.579Z,29.80
2018-06-09T00:48:10.033Z,22.73
2018-06-09T00:50:38.452Z,24.33
2018-06-09T00:53:07.228Z,25.50
2018-06-09T00:55:35.672Z,28.30
2018-06-09T00:58:04.130Z,34.33
2018-06-09T01:00:32.626Z,29.83
2018-06-09T01:03:01.051Z,36.17
2018-06-09T01:05:29.503Z,27.27
2018-06-09T01:07:58.475Z,31.50
2018-06-09T01:10:26.906Z,25.73
2018-06-09T01:12:55.325Z,36.27
2018-06-09T01:15:23.803Z,30.17
2018-06-09T01:17:52.236Z,31.57
2018-06-09T01:20:20.724Z,29.20
2018-06-09T01:22:49.155Z,28.87
2018-06-09T01:25:17.619Z,36.90
2018-06-09T01:27:46.042Z,28.03
2018-06-09T01:30:14.473Z,32.33
2018-06-09T01:32:43.189Z,28.40
2018-06-09T01:35:11.618Z,38.53
2018-06-09T01:37:40.125Z,29.07
2018-06-09T01:40:08.576Z,34.57
2018-06-09T01:42:37.424Z,36.57
2018-06-09T01:45:05.859Z,38.10
2018-06-09T01:47:34.298Z,26.67
2018-06-09T01:50:03.078Z,33.23
2018-06-09T01:52:31.684Z,36.23
2018-06-09T01:55:00.133Z,42.60
2018-06-09T01:57:28.566Z,34.20
2018-06-09T01:59:57.047Z,32.70
2018-06-09T02:02:25.483Z,37.53
2018-06-09T02:04:54.010Z,31.53
2018-06-09T02:07:22.476Z,34.63
2018-06-09T02:09:50.955Z,34.57
2018-06-09T02:12:19.551Z,39.57
2018-06-09T02:14:47.978Z,52.43
2018-06-09T02:17:16.403Z,39.00
2018-06-09T02:19:44.855Z,42.70
2018-06-09T02:22:13.317Z,43.50
2018-06-09T02:24:41.764Z,43.13
2018-06-09T02:27:10.187Z,48.40
2018-06-09T02:29:38.606Z,39.13
2018-06-09T02:32:07.068Z,48.93
2018-06-09T02:34:35.467Z,48.30
2018-06-09T02:37:03.873Z,40.70
2018-06-09T02:39:32.923Z,37.10
2018-06-09T02:42:01.931Z,42.27
2018-06-09T02:44:30.460Z,40.27
2018-06-09T02:46:59.081Z,41.80
2018-06-09T02:49:27.518Z,33.40
2018-06-09T02:51:55.975Z,33.57
2018-06-09T02:54:24.403Z,40.63
2018-06-09T02:56:53.079Z,34.10
2018-06-09T02:59:21.522Z,38.30
2018-06-09T03:01:50.257Z,29.60
2018-06-09T03:04:18.716Z,38.87
2018-06-09T03:06:47.168Z,29.50
2018-06-09T03:09:15.808Z,31.60
2018-06-09T03:11:44.199Z,33.30
2018-06-09T03:14:12.678Z,29.33
2018-06-09T03:16:41.125Z,28.70
2018-06-09T03:19:09.632Z,28.03
2018-06-09T03:21:38.422Z,31.00
2018-06-09T03:25:36.650Z,27.20
2018-06-09T03:28:05.081Z,33.47
2018-06-09T03:30:33.479Z,37.10
2018-06-09T03:33:01.936Z,27.50
2018-06-09T03:35:30.688Z,24.70
2018-06-09T03:37:59.191Z,30.27
2018-06-09T03:40:27.659Z,26.03
2018-06-09T03:42:56.045Z,25.47
2018-06-09T03:45:24.507Z,21.97
2018-06-09T03:47:52.929Z,26.70
2018-06-09T03:50:21.388Z,19.23
2018-06-09T03:52:49.823Z,20.20
2018-06-09T03:55:18.280Z,25.57
2018-06-09T03:57:47.020Z,22.97
2018-06-09T04:00:15.423Z,26.90
2018-06-09T04:02:43.892Z,30.20
2018-06-09T04:05:12.521Z,24.27
2018-06-09T04:07:40.956Z,28.77
2018-06-09T04:10:09.412Z,21.53
2018-06-09T04:12:37.813Z,20.33
2018-06-09T04:15:06.302Z,26.03
2018-06-09T04:17:34.744Z,16.30
2018-06-09T04:20:03.211Z,27.23
2018-06-09T04:22:31.696Z,22.80
2018-06-09T04:25:01.092Z,27.87
2018-06-09T04:27:29.795Z,21.67
2018-06-09T04:29:58.972Z,19.83
2018-06-09T04:32:27.696Z,17.93
2018-06-09T04:34:56.413Z,16.30
2018-06-09T04:37:25.296Z,19.43
2018-06-09T04:39:53.756Z,26.00
2018-06-09T04:42:22.227Z,19.10
2018-06-09T04:44:50.665Z,25.27
2018-06-09T04:47:19.160Z,22.77
2018-06-09T04:49:47.615Z,18.63
2018-06-09T04:52:16.099Z,21.90
2018-06-09T04:54:44.493Z,17.57
2018-06-09T04:57:13.510Z,19.50
2018-06-09T04:59:41.922Z,17.47
2018-06-09T05:02:10.344Z,20.40
2018-06-09T05:04:38.761Z,16.80
2018-06-09T05:07:07.228Z,19.70
2018-06-09T05:09:35.741Z,23.43
2018-06-09T05:12:04.297Z,28.13
2018-06-09T05:14:32.962Z,16.80
2018-06-09T05:17:01.453Z,25.30
2018-06-09T05:19:29.892Z,22.50
2018-06-09T05:21:58.299Z,22.83
2018-06-09T05:24:27.103Z,29.87
2018-06-09T05:26:55.821Z,29.67
2018-06-09T05:29:24.341Z,17.77
2018-06-09T05:31:52.889Z,17.43
2018-06-09T05:34:21.304Z,22.07
2018-06-09T05:36:50.064Z,22.40
2018-06-09T05:39:18.759Z,17.47
2018-06-09T05:41:47.175Z,18.50
2018-06-09T05:44:15.606Z,19.67
2018-06-09T05:46:44.063Z,26.23
2018-06-09T05:49:12.487Z,21.57
2018-06-09T05:51:41.050Z,25.77
2018-06-09T05:54:09.585Z,22.83
2018-06-09T05:56:39.020Z,26.37
2018-06-09T05:59:07.472Z,18.43
2018-06-09T06:01:35.928Z,25.67
2018-06-09T06:04:04.380Z,18.30
2018-06-09T06:06:32.788Z,30.57
2018-06-09T06:09:01.279Z,20.30
2018-06-09T06:11:29.704Z,20.83
2018-06-09T06:13:58.259Z,20.80
2018-06-09T06:16:27.007Z,16.53
2018-06-09T06:18:55.539Z,15.83
2018-06-09T06:21:24.011Z,25.30
2018-06-09T06:23:51.437Z,19.03
2018-06-09T06:26:19.885Z,19.83
2018-06-09T06:28:48.301Z,17.07
2018-06-09T06:31:16.797Z,18.97
2018-06-09T06:33:45.779Z,16.73
2018-06-09T06:36:14.211Z,19.57
2018-06-09T06:38:42.685Z,25.80
2018-06-09T06:41:11.292Z,19.83
2018-06-09T06:43:39.698Z,21.33
2018-06-09T06:46:08.367Z,16.60
2018-06-09T06:48:36.835Z,19.13
2018-06-09T06:51:05.339Z,26.50
2018-06-09T06:53:33.756Z,19.00
2018-06-09T06:56:02.199Z,18.23
2018-06-09T06:58:30.850Z,17.13
2018-06-09T07:00:59.278Z,16.40
2018-06-09T07:03:27.981Z,27.30
2018-06-09T07:05:56.419Z,17.23
2018-06-09T07:08:24.885Z,13.67
2018-06-09T07:10:53.340Z,17.90
2018-06-09T07:13:21.719Z,26.27
2018-06-09T07:15:50.476Z,20.50
2018-06-09T07:18:19.883Z,16.27
2018-06-09T07:20:48.362Z,16.20
2018-06-09T07:23:17.167Z,13.93
2018-06-09T07:25:45.599Z,24.83
2018-06-09T07:28:14.118Z,16.97
2018-06-09T07:30:42.753Z,33.53
2018-06-09T07:33:11.228Z,23.03
2018-06-09T07:35:39.627Z,15.20
2018-06-09T07:38:08.671Z,16.03
2018-06-09T07:40:37.344Z,21.30
2018-06-09T07:43:05.816Z,13.00
2018-06-09T07:45:34.319Z,14.13
2018-06-09T07:48:02.772Z,21.83
2018-06-09T07:50:31.179Z,16.20
2018-06-09T07:52:59.661Z,18.37
2018-06-09T07:55:28.092Z,21.17
2018-06-09T07:57:56.525Z,14.80
2018-06-09T08:00:25.000Z,19.73
2018-06-09T08:02:53.443Z,17.93
2018-06-09T08:05:21.912Z,16.10
2018-06-09T08:07:50.424Z,16.10
2018-06-09T08:10:18.865Z,19.63
2018-06-09T08:12:47.515Z,14.20
2018-06-09T08:15:15.952Z,24.07
2018-06-09T08:17:44.608Z,14.53
2018-06-09T08:20:13.096Z,17.50
2018-06-09T08:22:41.544Z,14.73
2018-06-09T08:25:09.952Z,16.70
2018-06-09T08:27:38.405Z,20.83
2018-06-09T08:30:07.136Z,19.30
2018-06-09T08:32:35.963Z,18.43
2018-06-09T08:35:04.534Z,22.33
2018-06-09T08:37:33.168Z,22.63
2018-06-09T08:40:01.605Z,15.37
2018-06-09T08:42:30.017Z,21.03
2018-06-09T08:44:58.805Z,15.80
2018-06-09T08:47:27.237Z,24.50
2018-06-09T08:49:55.667Z,18.90
2018-06-09T08:52:24.107Z,16.30
2018-06-09T08:54:52.567Z,15.33
2018-06-09T08:57:21.632Z,20.60
2018-06-09T08:59:50.026Z,14.70
2018-06-09T09:02:18.472Z,13.90
2018-06-09T09:04:46.957Z,15.93
2018-06-09T09:07:15.408Z,17.03
2018-06-09T09:09:44.184Z,12.20
2018-06-09T09:12:12.645Z,16.60
2018-06-09T09:14:41.039Z,16.53
2018-06-09T09:17:09.487Z,18.40
2018-06-09T09:19:37.940Z,13.13
2018-06-09T09:22:06.821Z,17.60
2018-06-09T09:24:35.290Z,22.03
2018-06-09T09:27:03.787Z,17.60
2018-06-09T09:29:32.216Z,16.30
2018-06-09T09:32:00.631Z,18.53
2018-06-09T09:34:29.203Z,15.40
2018-06-09T09:36:57.652Z,11.97
2018-06-09T09:39:26.092Z,14.87
2018-06-09T09:41:54.528Z,11.70
2018-06-09T09:44:22.964Z,14.43
2018-06-09T09:46:51.376Z,12.40
2018-06-09T09:49:19.897Z,11.00
2018-06-09T09:51:48.632Z,16.63
2018-06-09T09:54:17.058Z,17.10
2018-06-09T09:56:45.514Z,15.27
2018-06-09T09:59:14.083Z,19.83
2018-06-09T10:01:42.495Z,22.13
2018-06-09T10:04:10.971Z,14.93
2018-06-09T10:06:39.387Z,20.10
2018-06-09T10:09:08.770Z,14.73
2018-06-09T10:11:37.215Z,13.50
2018-06-09T10:14:05.627Z,12.80
2018-06-09T10:16:34.284Z,17.83
2018-06-09T10:19:02.683Z,13.50
2018-06-09T10:21:31.364Z,17.60
2018-06-09T10:23:59.789Z,14.40
2018-06-09T10:26:28.593Z,12.40
2018-06-09T10:28:57.027Z,12.57
2018-06-09T10:31:25.702Z,12.33
2018-06-09T10:33:54.134Z,18.50
2018-06-09T10:36:22.844Z,12.50
2018-06-09T10:38:51.312Z,10.30
2018-06-09T10:41:19.727Z,15.40
2018-06-09T10:43:48.273Z,24.33
2018-06-09T10:46:16.676Z,17.33
2018-06-09T10:48:45.075Z,14.57
2018-06-09T10:51:13.510Z,15.60
2018-06-09T10:53:41.960Z,14.43
2018-06-09T10:56:10.596Z,12.10
2018-06-09T10:58:39.321Z,11.43
2018-06-09T11:01:07.809Z,18.27
2018-06-09T11:03:36.247Z,13.93
2018-06-09T11:06:04.663Z,10.50
2018-06-09T11:08:33.104Z,11.37
2018-06-09T11:11:01.591Z,17.70
2018-06-09T11:13:30.188Z,15.23
2018-06-09T11:15:58.607Z,12.03
2018-06-09T11:18:26.991Z,10.43
2018-06-09T11:20:55.423Z,13.00
2018-06-09T11:23:23.836Z,19.80
2018-06-09T11:25:52.285Z,10.93
2018-06-09T11:28:20.759Z,12.80
2018-06-09T11:30:49.270Z,12.17
2018-06-09T11:33:17.675Z,8.77
2018-06-09T11:35:46.083Z,11.27
2018-06-09T11:38:14.503Z,12.53
2018-06-09T11:40:42.928Z,15.37
2018-06-09T11:43:11.306Z,12.30
2018-06-09T11:45:39.752Z,9.93
2018-06-09T11:48:08.195Z,17.27
2018-06-09T11:50:36.590Z,11.10
2018-06-09T11:53:05.074Z,11.73
2018-06-09T11:55:33.484Z,11.57
2018-06-09T11:58:02.295Z,12.10
2018-06-09T12:00:30.727Z,13.30
2018-06-09T12:02:59.131Z,14.27
2018-06-09T12:05:27.553Z,11.77
2018-06-09T12:07:55.966Z,10.20
2018-06-09T12:10:24.378Z,8.57
2018-06-09T12:12:52.800Z,9.00
2018-06-09T12:15:21.527Z,9.40
2018-06-09T12:17:49.956Z,8.97
2018-06-09T12:20:18.363Z,8.13
2018-06-09T12:22:46.783Z,11.87
2018-06-09T12:25:15.507Z,8.77
2018-06-09T12:27:43.905Z,8.30
2018-06-09T12:30:12.328Z,7.53
2018-06-09T12:32:40.724Z,9.60
2018-06-09T12:35:09.167Z,8.23
2018-06-09T12:37:37.548Z,8.40
2018-06-09T12:40:06.544Z,18.33
2018-06-09T12:42:34.948Z,15.13
2018-06-09T12:45:03.389Z,10.83
2018-06-09T12:47:31.813Z,12.73
2018-06-09T12:50:00.231Z,10.53
2018-06-09T12:52:28.644Z,10.70
2018-06-09T12:54:57.202Z,7.60
2018-06-09T12:57:25.599Z,8.20
2018-06-09T12:59:54.074Z,6.40
2018-06-09T13:02:22.597Z,14.03
2018-06-09T13:04:50.977Z,16.23
2018-06-09T13:07:19.689Z,9.80
2018-06-09T13:09:48.100Z,6.63
2018-06-09T13:12:16.492Z,9.13
2018-06-09T13:14:44.910Z,8.77
2018-06-09T13:17:13.294Z,9.00
2018-06-09T13:19:41.707Z,8.70
2018-06-09T13:22:10.270Z,11.47
2018-06-09T13:24:38.688Z,9.60
2018-06-09T13:27:07.150Z,13.67
2018-06-09T13:29:35.560Z,8.87
2018-06-09T13:32:03.963Z,11.00
2018-06-09T13:34:32.382Z,12.03
2018-06-09T13:37:00.782Z,11.73
2018-06-09T13:39:29.180Z,9.87
2018-06-09T13:41:57.648Z,9.47
2018-06-09T13:44:26.080Z,11.73
2018-06-09T13:46:54.710Z,14.77
2018-06-09T13:49:23.307Z,16.07
2018-06-09T13:51:52.075Z,11.40
2018-06-09T13:54:20.533Z,10.63
2018-06-09T13:56:48.976Z,12.20
2018-06-09T13:59:17.402Z,12.07
2018-06-09T14:01:45.831Z,7.70
2018-06-09T14:04:14.267Z,8.23
2018-06-09T14:06:42.721Z,11.33
2018-06-09T14:09:11.123Z,13.40
2018-06-09T14:11:39.515Z,10.53
2018-06-09T14:14:07.938Z,14.37
2018-06-09T14:16:36.362Z,9.80
2018-06-09T14:19:05.059Z,15.10
2018-06-09T14:21:33.494Z,10.60
2018-06-09T14:24:01.912Z,12.37
2018-06-09T14:26:30.652Z,20.90
2018-06-09T14:28:59.331Z,17.90
2018-06-09T14:31:27.844Z,16.10
2018-06-09T14:33:56.250Z,44.10
2018-06-09T14:36:24.651Z,18.30
2018-06-09T14:38:53.175Z,11.10
2018-06-09T14:41:21.681Z,9.33
2018-06-09T14:43:50.200Z,9.83
2018-06-09T14:46:18.628Z,24.90
2018-06-09T14:48:47.044Z,13.20
2018-06-09T14:51:15.455Z,10.30
2018-06-09T14:53:44.065Z,14.07
2018-06-09T14:56:12.553Z,25.80
2018-06-09T14:58:40.967Z,8.53
2018-06-09T15:01:09.426Z,13.27
2018-06-09T15:03:37.955Z,16.33
2018-06-09T15:06:06.379Z,18.07
2018-06-09T15:08:34.806Z,10.93
2018-06-09T15:11:03.257Z,17.77
2018-06-09T15:13:31.743Z,13.07
2018-06-09T15:16:00.299Z,13.00
2018-06-09T15:18:28.818Z,13.50
2018-06-09T15:20:57.251Z,14.57
2018-06-09T15:23:25.647Z,9.57
2018-06-09T15:25:54.376Z,16.80
2018-06-09T15:28:22.798Z,10.97
2018-06-09T15:30:51.207Z,29.07
2018-06-09T15:33:19.705Z,14.23
2018-06-09T15:35:48.147Z,10.83
2018-06-09T15:38:16.555Z,13.00
2018-06-09T15:40:44.940Z,16.23
2018-06-09T15:43:13.366Z,17.90
2018-06-09T15:45:41.738Z,13.33
2018-06-09T15:48:10.308Z,11.77
2018-06-09T15:50:38.704Z,11.53
2018-06-09T15:53:07.140Z,22.03
2018-06-09T15:55:35.551Z,19.00
2018-06-09T15:58:03.999Z,16.60
2018-06-09T16:00:32.441Z,15.23
2018-06-09T16:03:00.914Z,21.80
2018-06-09T16:05:29.348Z,43.53
2018-06-09T16:07:57.780Z,53.17
2018-06-09T16:10:26.224Z,25.60
2018-06-09T16:13:17.302Z,20.50
2018-06-09T16:16:20.553Z,16.33
2018-06-09T16:29:30.621Z,30.20
2018-06-09T16:31:59.050Z,30.50
2018-06-09T16:34:27.507Z,27.03
2018-06-09T16:36:55.976Z,25.00
2018-06-09T16:39:24.407Z,23.33
2018-06-09T16:41:52.892Z,21.20
2018-06-09T16:44:21.353Z,22.20
2018-06-09T16:46:49.772Z,25.30
2018-06-09T16:49:18.207Z,17.63
2018-06-09T16:51:46.606Z,19.33
2018-06-09T16:54:15.004Z,18.63
2018-06-09T16:56:43.427Z,23.07
2018-06-09T16:59:11.888Z,24.93
2018-06-09T17:01:40.376Z,25.27
2018-06-09T17:04:08.811Z,18.00
2018-06-09T17:06:37.207Z,17.73
2018-06-09T17:09:08.187Z,15.43
2018-06-09T17:11:36.796Z,20.20
2018-06-09T17:14:05.604Z,17.47
2018-06-09T17:16:34.093Z,20.37
2018-06-09T17:19:02.487Z,17.70
2018-06-09T17:21:30.891Z,28.60
2018-06-09T17:23:59.332Z,19.33
2018-06-09T17:26:27.788Z,22.17
2018-06-09T17:28:56.219Z,22.27
2018-06-09T17:31:24.606Z,19.40
2018-06-09T17:33:53.267Z,33.50
2018-06-09T17:36:21.699Z,29.73
2018-06-09T17:38:50.112Z,25.83
2018-06-09T17:41:18.594Z,26.03
2018-06-09T17:43:47.079Z,22.03
2018-06-09T17:46:15.578Z,27.67
2018-06-09T17:48:44.023Z,30.13
2018-06-09T17:51:12.451Z,24.63
2018-06-09T17:53:40.928Z,30.27
2018-06-09T17:56:09.357Z,33.17
2018-06-09T17:58:37.820Z,22.37
2018-06-09T18:01:06.247Z,23.97
2018-06-09T18:03:34.692Z,22.40
2018-06-09T18:06:03.163Z,24.00
2018-06-09T18:08:31.628Z,31.27
2018-06-09T18:11:00.064Z,26.87
2018-06-09T18:13:28.459Z,22.07
2018-06-09T18:15:56.940Z,31.90
2018-06-09T18:18:25.359Z,34.50
2018-06-09T18:20:53.816Z,37.50
2018-06-09T18:23:22.277Z,26.30
2018-06-09T18:25:50.699Z,31.90
2018-06-09T18:28:19.195Z,29.60
2018-06-09T18:30:47.639Z,35.23
2018-06-09T18:33:16.255Z,32.83
2018-06-09T18:35:44.717Z,37.90
2018-06-09T18:38:13.245Z,27.87
2018-06-09T18:40:41.709Z,30.23
2018-06-09T18:43:10.200Z,37.10
2018-06-09T18:45:38.662Z,30.17
2018-06-09T18:48:07.096Z,31.10
2018-06-09T18:50:35.520Z,31.40
2018-06-09T18:53:03.987Z,27.00
2018-06-09T18:55:32.435Z,27.00
2018-06-09T18:58:01.038Z,24.30
2018-06-09T19:00:29.486Z,25.50
2018-06-09T19:02:57.935Z,35.63
2018-06-09T19:05:26.353Z,36.23
2018-06-09T19:07:54.830Z,42.17
2018-06-09T19:10:23.516Z,33.10
2018-06-09T19:12:52.050Z,33.07
2018-06-09T19:15:20.480Z,30.20
2018-06-09T19:17:48.895Z,35.27
2018-06-09T19:20:17.299Z,35.60
2018-06-09T19:22:45.787Z,35.37
2018-06-09T19:25:14.187Z,31.33
2018-06-09T19:27:42.736Z,39.33
2018-06-09T19:30:11.487Z,37.93
2018-06-09T19:32:39.935Z,50.83
2018-06-09T19:35:08.600Z,36.13
2018-06-09T19:37:37.060Z,38.77
2018-06-09T19:40:05.641Z,41.33
2018-06-09T19:42:34.097Z,36.63
2018-06-09T19:45:02.516Z,39.70
2018-06-09T19:47:30.971Z,39.27
2018-06-09T19:49:59.436Z,36.13
2018-06-09T19:52:27.870Z,38.70
2018-06-09T19:54:56.310Z,41.10
2018-06-09T19:57:24.869Z,37.70
2018-06-09T19:59:53.447Z,37.20
2018-06-09T20:02:21.932Z,36.47
2018-06-09T20:04:50.391Z,37.17
2018-06-09T20:07:18.972Z,36.37
2018-06-09T20:09:47.391Z,30.23
2018-06-09T20:12:15.914Z,39.80
2018-06-09T20:14:44.379Z,41.33
2018-06-09T20:17:12.832Z,32.90
2018-06-09T20:19:41.630Z,37.97
2018-06-09T20:22:10.089Z,34.30
2018-06-09T20:24:38.499Z,46.37
2018-06-09T20:27:07.154Z,45.53
2018-06-09T20:29:35.591Z,50.20
2018-06-09T20:32:04.259Z,41.33
2018-06-09T20:34:32.806Z,37.93
2018-06-09T20:37:01.260Z,43.93
2018-06-09T20:39:30.204Z,42.03
2018-06-09T20:41:59.189Z,36.07
2018-06-09T20:44:27.636Z,40.30
2018-06-09T20:46:56.407Z,38.17
2018-06-09T20:49:25.215Z,43.83
2018-06-09T20:51:54.319Z,49.00
2018-06-09T20:54:23.147Z,40.00
2018-06-09T20:56:51.646Z,47.33
2018-06-09T20:59:20.111Z,48.13
2018-06-09T21:01:48.553Z,48.73
2018-06-09T21:04:17.090Z,42.70
2018-06-09T21:06:45.494Z,50.10
2018-06-09T21:09:13.955Z,49.27
2018-06-09T21:11:42.395Z,47.97
2018-06-09T21:14:10.867Z,51.60
2018-06-09T21:16:39.311Z,48.60
2018-06-09T21:19:07.755Z,40.43
2018-06-09T21:21:36.203Z,37.43
2018-06-09T21:24:04.674Z,39.10
2018-06-09T21:26:38.654Z,41.77
2018-06-09T21:29:12.300Z,29.77
2018-06-09T21:31:44.089Z,33.93
2018-06-09T21:34:28.929Z,39.53
2018-06-09T21:37:01.512Z,45.10
2018-06-09T21:39:35.200Z,39.23
2018-06-09T21:42:09.015Z,41.13
2018-06-09T21:44:37.870Z,34.07
2018-06-09T21:47:06.412Z,35.37
2018-06-09T21:49:34.927Z,34.20
2018-06-09T21:52:03.348Z,35.30
2018-06-09T21:54:31.952Z,36.63
2018-06-09T21:57:00.471Z,38.20
2018-06-09T21:59:29.072Z,43.40
2018-06-09T22:01:57.504Z,35.67
2018-06-09T22:04:25.947Z,41.37
2018-06-09T22:06:54.360Z,46.33
2018-06-09T22:09:22.807Z,33.90
2018-06-09T22:11:51.220Z,35.27
2018-06-09T22:14:19.656Z,41.87
2018-06-09T22:16:48.099Z,34.93
2018-06-09T22:19:16.545Z,37.90
2018-06-09T22:21:45.023Z,40.03
2018-06-09T22:24:13.462Z,41.17
2018-06-09T22:26:42.206Z,50.17
2018-06-09T22:29:10.898Z,51.50
2018-06-09T22:31:39.312Z,61.83
2018-06-09T22:34:07.731Z,45.60
2018-06-09T22:36:36.154Z,49.40
2018-06-09T22:39:07.260Z,41.03
2018-06-09T22:41:35.952Z,54.30
2018-06-09T22:44:04.412Z,43.33
2018-06-09T22:46:32.951Z,41.53
2018-06-09T22:49:01.388Z,55.27
2018-06-09T22:51:29.830Z,40.63
2018-06-09T22:53:58.257Z,41.27
2018-06-09T22:56:26.659Z,34.77
2018-06-09T22:58:55.239Z,32.57
2018-06-09T23:01:23.711Z,33.97
2018-06-09T23:03:52.552Z,35.00
2018-06-09T23:06:20.988Z,35.57
2018-06-09T23:08:49.606Z,35.43
2018-06-09T23:11:18.055Z,37.93
2018-06-09T23:13:46.509Z,34.30
2018-06-09T23:16:14.980Z,45.00
2018-06-09T23:18:43.391Z,48.37
2018-06-09T23:21:11.822Z,48.40
2018-06-09T23:23:40.346Z,45.13
2018-06-09T23:26:08.735Z,42.63
2018-06-09T23:28:37.151Z,43.60
2018-06-09T23:31:05.742Z,54.43
2018-06-09T23:33:34.158Z,58.00
2018-06-09T23:36:02.704Z,41.17
2018-06-09T23:38:31.118Z,39.07
2018-06-09T23:40:59.578Z,44.20
2018-06-09T23:43:28.112Z,45.17
2018-06-09T23:45:56.898Z,47.67
2018-06-09T23:48:25.308Z,41.43
2018-06-09T23:50:53.743Z,46.70
2018-06-09T23:53:22.227Z,52.43
2018-06-09T23:55:50.663Z,40.70
2018-06-09T23:58:19.123Z,38.43
